createdAt,value
2023-02-11T00:00:42.021Z,103218.75
2023-02-11T00:03:10.777Z,103224.88
2023-02-11T00:05:38.836Z,103224.00
2023-02-11T00:08:07.031Z,103222.25
2023-02-11T00:10:36.690Z,103220.50
2023-02-11T00:13:04.778Z,103225.69
2023-02-11T00:15:32.821Z,103229.22
2023-02-11T00:18:00.896Z,103224.81
2023-02-11T00:20:28.920Z,103218.75
2023-02-11T00:22:57.155Z,103220.50
2023-02-11T00:25:25.214Z,103221.38
2023-02-11T00:27:54.670Z,103212.66
2023-02-11T00:30:22.759Z,103210.03
2023-02-11T00:32:53.299Z,103213.50
2023-02-11T00:35:21.319Z,103223.06
2023-02-11T00:37:49.440Z,103222.22
2023-02-11T00:40:17.644Z,103221.31
2023-02-11T00:42:45.661Z,103228.28
2023-02-11T00:45:15.180Z,103235.25
2023-02-11T00:47:43.308Z,103243.09
2023-02-11T00:50:11.558Z,103243.09
2023-02-11T00:52:39.627Z,103239.59
2023-02-11T00:55:08.942Z,103231.75
2023-02-11T00:57:37.198Z,103227.41
2023-02-11T01:00:06.752Z,103227.44
2023-02-11T01:02:36.192Z,103229.16
2023-02-11T01:05:04.296Z,103229.16
2023-02-11T01:07:32.462Z,103230.03
2023-02-11T01:10:02.821Z,103216.13
2023-02-11T01:12:31.032Z,103210.94
2023-02-11T01:14:59.095Z,103206.59
2023-02-11T01:17:27.436Z,103204.84
2023-02-11T01:19:56.825Z,103202.22
2023-02-11T01:22:24.949Z,103190.91
2023-02-11T01:24:52.991Z,103192.69
2023-02-11T01:27:21.080Z,103188.31
2023-02-11T01:29:49.175Z,103181.38
2023-02-11T01:32:17.461Z,103181.34
2023-02-11T01:34:45.505Z,103178.75
2023-02-11T01:37:15.030Z,103177.91
2023-02-11T01:39:43.186Z,103190.13
2023-02-11T01:42:16.741Z,103198.78
2023-02-11T01:44:45.180Z,103190.97
2023-02-11T01:47:13.229Z,103191.84
2023-02-11T01:49:45.694Z,103211.84
2023-02-11T01:52:19.689Z,103210.09
2023-02-11T01:55:09.388Z,103217.06
2023-02-11T01:57:40.953Z,103215.31
2023-02-11T02:00:14.043Z,103211.81
2023-02-11T02:02:50.037Z,103204.88
2023-02-11T02:05:25.575Z,103206.66
2023-02-11T02:08:01.899Z,103207.50
2023-02-11T02:10:30.271Z,103212.72
2023-02-11T02:12:58.721Z,103204.91
2023-02-11T02:15:30.628Z,103191.84
2023-02-11T02:18:21.283Z,103197.06
2023-02-11T02:21:41.877Z,103180.59
2023-02-11T02:24:51.284Z,103183.16
2023-02-11T02:27:37.224Z,103191.03
2023-02-11T02:30:36.910Z,103185.75
2023-02-11T02:33:23.599Z,103180.56
2023-02-11T02:36:01.437Z,103182.31
2023-02-11T02:38:35.230Z,103168.41
2023-02-11T02:41:08.002Z,103175.34
2023-02-11T02:43:39.070Z,103177.94
2023-02-11T02:46:16.474Z,103171.00
2023-02-11T02:48:46.283Z,103164.03
2023-02-11T02:51:39.021Z,103157.94
2023-02-11T02:54:28.395Z,103157.06
2023-02-11T02:57:05.288Z,103157.94
2023-02-11T02:59:44.670Z,103159.72
2023-02-11T03:02:19.446Z,103164.00
2023-02-11T03:04:53.596Z,103156.22
2023-02-11T03:07:29.513Z,103164.94
2023-02-11T03:10:04.795Z,103160.53
2023-02-11T03:12:34.896Z,103164.03
2023-02-11T03:15:05.936Z,103160.59
2023-02-11T03:17:36.155Z,103157.97
2023-02-11T03:20:07.448Z,103155.38
2023-02-11T03:22:41.069Z,103154.50
2023-02-11T03:25:10.435Z,103154.50
2023-02-11T03:27:44.849Z,103152.78
2023-02-11T03:30:15.687Z,103158.84
2023-02-11T03:32:51.550Z,103155.38
2023-02-11T03:35:25.325Z,103151.91
2023-02-11T03:37:58.274Z,103155.38
2023-02-11T03:40:29.026Z,103153.59
2023-02-11T03:43:01.116Z,103133.59
2023-02-11T03:45:30.258Z,103130.16
2023-02-11T03:48:06.751Z,103127.56
2023-02-11T03:50:38.472Z,103131.88
2023-02-11T03:53:07.344Z,103129.28
2023-02-11T03:55:39.901Z,103133.66
2023-02-11T03:58:08.028Z,103134.50
2023-02-11T04:00:39.608Z,103144.94
2023-02-11T04:03:08.407Z,103158.84
2023-02-11T04:05:38.477Z,103153.63
2023-02-11T04:08:07.484Z,103157.94
2023-02-11T04:10:38.577Z,103165.78
2023-02-11T04:13:06.860Z,103164.06
2023-02-11T04:15:38.221Z,103170.09
2023-02-11T04:18:06.376Z,103166.66
2023-02-11T04:20:34.515Z,103164.94
2023-02-11T04:23:04.250Z,103176.22
2023-02-11T04:25:32.541Z,103174.47
2023-02-11T04:28:00.571Z,103169.25
2023-02-11T04:30:28.967Z,103168.34
2023-02-11T04:33:00.159Z,103166.66
2023-02-11T04:35:28.276Z,103158.81
2023-02-11T04:37:56.344Z,103158.81
2023-02-11T04:40:25.896Z,103164.94
2023-02-11T04:42:54.014Z,103167.53
2023-02-11T04:45:22.176Z,103169.25
2023-02-11T04:47:50.156Z,103164.91
2023-02-11T04:50:18.845Z,103167.53
2023-02-11T04:52:46.992Z,103166.66
2023-02-11T04:55:15.288Z,103159.72
2023-02-11T04:57:44.765Z,103170.13
2023-02-11T05:00:16.709Z,103164.91
2023-02-11T05:02:44.925Z,103163.19
2023-02-11T05:05:12.961Z,103169.25
2023-02-11T05:07:41.164Z,103155.34
2023-02-11T05:10:09.589Z,103144.94
2023-02-11T05:12:37.628Z,103159.72
2023-02-11T05:15:07.900Z,103154.47
2023-02-11T05:17:35.974Z,103164.03
2023-02-11T05:20:04.109Z,103169.25
2023-02-11T05:22:32.142Z,103160.53
2023-02-11T05:25:00.184Z,103168.34
2023-02-11T05:27:28.286Z,103166.63
2023-02-11T05:29:56.320Z,103166.66
2023-02-11T05:32:25.854Z,103165.75
2023-02-11T05:34:53.891Z,103169.25
2023-02-11T05:37:21.997Z,103171.00
2023-02-11T05:39:50.132Z,103173.56
2023-02-11T05:42:18.251Z,103172.72
2023-02-11T05:44:50.706Z,103175.34
2023-02-11T05:47:18.948Z,103177.03
2023-02-11T05:49:48.439Z,103177.91
2023-02-11T05:52:16.642Z,103175.31
2023-02-11T05:54:44.665Z,103174.47
2023-02-11T05:57:12.893Z,103171.00
2023-02-11T05:59:41.029Z,103174.50
2023-02-11T06:02:09.840Z,103171.84
2023-02-11T06:04:38.632Z,103179.66
2023-02-11T06:07:08.005Z,103179.69
2023-02-11T06:09:36.118Z,103177.06
2023-02-11T06:12:04.226Z,103178.81
2023-02-11T06:14:34.333Z,103175.31
2023-02-11T06:17:02.747Z,103176.19
2023-02-11T06:19:31.225Z,103173.59
2023-02-11T06:21:59.470Z,103170.09
2023-02-11T06:24:54.600Z,103157.94
2023-02-11T06:27:19.574Z,103170.09
2023-02-11T06:29:47.918Z,103164.88
2023-02-11T06:32:37.012Z,103171.84
2023-02-11T06:35:04.155Z,103174.41
2023-02-11T06:37:32.210Z,103170.06
2023-02-11T06:40:01.859Z,103177.91
2023-02-11T06:42:29.888Z,103173.56
2023-02-11T06:44:57.922Z,103181.41
2023-02-11T06:47:26.454Z,103182.25
2023-02-11T06:49:54.497Z,103178.78
2023-02-11T06:52:22.563Z,103172.72
2023-02-11T06:54:50.557Z,103178.75
2023-02-11T06:57:20.012Z,103180.50
2023-02-11T06:59:48.303Z,103182.22
2023-02-11T07:02:18.426Z,103187.44
2023-02-11T07:04:50.812Z,103184.00
2023-02-11T07:07:18.827Z,103177.03
2023-02-11T07:09:46.842Z,103180.50
2023-02-11T07:12:14.883Z,103184.03
2023-02-11T07:14:44.421Z,103184.88
2023-02-11T07:17:12.539Z,103190.09
2023-02-11T07:19:40.779Z,103191.84
2023-02-11T07:22:08.844Z,103187.44
2023-02-11T07:24:36.880Z,103197.91
2023-02-11T07:27:05.000Z,103203.13
2023-02-11T07:29:33.253Z,103205.72
2023-02-11T07:32:02.935Z,103206.59
2023-02-11T07:34:31.050Z,103201.38
2023-02-11T07:36:59.149Z,103204.84
2023-02-11T07:39:30.900Z,103209.19
2023-02-11T07:41:58.950Z,103209.22
2023-02-11T07:44:27.074Z,103220.50
2023-02-11T07:46:55.141Z,103211.78
2023-02-11T07:49:24.562Z,103202.22
2023-02-11T07:51:52.798Z,103206.53
2023-02-11T07:54:20.811Z,103195.22
2023-02-11T07:56:48.969Z,103203.94
2023-02-11T07:59:17.157Z,103208.22
2023-02-11T08:01:45.628Z,103216.94
2023-02-11T08:04:13.924Z,103215.19
2023-02-11T08:06:44.561Z,103213.47
2023-02-11T08:09:16.360Z,103212.56
2023-02-11T08:11:45.519Z,103209.97
2023-02-11T08:14:16.263Z,103209.94
2023-02-11T08:16:44.469Z,103209.94
2023-02-11T08:19:15.474Z,103203.84
2023-02-11T08:22:02.714Z,103211.66
2023-02-11T08:24:32.385Z,103201.22
2023-02-11T08:27:00.464Z,103206.41
2023-02-11T08:29:28.513Z,103204.69
2023-02-11T08:31:56.612Z,103205.53
2023-02-11T08:34:24.677Z,103208.97
2023-02-11T08:36:54.149Z,103215.94
2023-02-11T08:39:24.700Z,103212.44
2023-02-11T08:41:56.565Z,103218.50
2023-02-11T08:44:25.481Z,103217.63
2023-02-11T08:46:53.849Z,103218.50
2023-02-11T08:49:24.967Z,103228.06
2023-02-11T08:51:56.266Z,103225.44
2023-02-11T08:54:24.317Z,103236.72
2023-02-11T08:56:52.912Z,103240.19
2023-02-11T08:59:21.110Z,103233.19
2023-02-11T09:01:49.591Z,103242.78
2023-02-11T09:04:17.870Z,103246.19
2023-02-11T09:06:46.465Z,103248.78
2023-02-11T09:09:17.457Z,103253.13
2023-02-11T09:11:46.290Z,103240.97
2023-02-11T09:14:20.209Z,103247.94
2023-02-11T09:16:49.306Z,103240.06
2023-02-11T09:19:17.575Z,103247.00
2023-02-11T09:21:45.669Z,103257.44
2023-02-11T09:24:15.276Z,103258.28
2023-02-11T09:26:44.548Z,103262.63
2023-02-11T09:29:12.661Z,103271.22
2023-02-11T09:31:40.903Z,103275.59
2023-02-11T09:34:09.570Z,103279.09
2023-02-11T09:36:39.679Z,103275.56
2023-02-11T09:39:10.432Z,103272.91
2023-02-11T09:42:05.709Z,103274.59
2023-02-11T09:44:35.578Z,103270.22
2023-02-11T09:47:06.220Z,103267.63
2023-02-11T09:49:40.384Z,103273.66
2023-02-11T09:52:26.459Z,103274.50
2023-02-11T09:54:57.865Z,103283.16
2023-02-11T09:57:33.115Z,103294.44
2023-02-11T10:00:02.401Z,103296.19
2023-02-11T10:02:39.912Z,103293.56
2023-02-11T10:05:29.112Z,103304.88
2023-02-11T10:08:04.003Z,103308.31
2023-02-11T10:10:44.678Z,103306.53
2023-02-11T10:13:33.659Z,103310.88
2023-02-11T10:16:11.159Z,103317.81
2023-02-11T10:18:54.747Z,103316.84
2023-02-11T10:21:33.865Z,103321.19
2023-02-11T10:24:05.530Z,103326.34
2023-02-11T10:26:37.240Z,103328.09
2023-02-11T10:29:32.270Z,103335.06
2023-02-11T10:32:02.450Z,103336.72
2023-02-11T10:34:30.539Z,103336.66
2023-02-11T10:37:00.870Z,103340.16
2023-02-11T10:39:29.356Z,103342.72
2023-02-11T10:42:01.649Z,103343.50
2023-02-11T10:44:33.923Z,103341.78
2023-02-11T10:47:05.553Z,103340.88
2023-02-11T10:49:39.469Z,103350.38
2023-02-11T10:52:20.542Z,103349.44
2023-02-11T10:55:01.042Z,103356.34
2023-02-11T10:57:34.105Z,103356.31
2023-02-11T11:00:09.332Z,103354.47
2023-02-11T11:02:44.138Z,103357.94
2023-02-11T11:05:18.726Z,103359.72
2023-02-11T11:07:54.903Z,103363.97
2023-02-11T11:10:32.835Z,103363.91
2023-02-11T11:13:00.978Z,103369.00
2023-02-11T11:15:32.550Z,103371.59
2023-02-11T11:18:22.066Z,103360.09
2023-02-11T11:20:59.225Z,103367.94
2023-02-11T11:23:29.418Z,103361.75
2023-02-11T11:26:05.664Z,103362.50
2023-02-11T11:28:40.409Z,103357.22
2023-02-11T11:31:19.017Z,103356.31
2023-02-11T11:33:48.550Z,103353.66
2023-02-11T11:36:21.050Z,103365.81
2023-02-11T11:38:53.147Z,103364.00
2023-02-11T11:41:27.054Z,103365.56
2023-02-11T11:44:03.824Z,103354.00
2023-02-11T11:46:38.187Z,103350.41
2023-02-11T11:49:20.244Z,103345.00
2023-02-11T11:51:57.821Z,103338.75
2023-02-11T11:54:26.803Z,103327.31
2023-02-11T11:57:00.118Z,103336.63
2023-02-11T11:59:29.722Z,103333.88
2023-02-11T12:02:19.641Z,103338.13
2023-02-11T12:05:02.160Z,103342.38
2023-02-11T12:07:51.354Z,103343.09
2023-02-11T12:10:44.094Z,103330.63
2023-02-11T12:13:25.240Z,103333.19
2023-02-11T12:16:04.984Z,103329.44
2023-02-11T12:18:52.283Z,103323.25
2023-02-11T12:21:37.419Z,103320.63
2023-02-11T12:24:19.925Z,103314.50
2023-02-11T12:26:54.456Z,103321.19
2023-02-11T12:29:33.083Z,103322.03
2023-02-11T12:32:15.461Z,103322.06
2023-02-11T12:35:09.046Z,103326.44
2023-02-11T12:37:51.014Z,103328.06
2023-02-11T12:40:25.263Z,103326.91
2023-02-11T12:43:16.899Z,103323.97
2023-02-11T12:46:01.492Z,103333.59
2023-02-11T12:48:46.626Z,103327.13
2023-02-11T12:51:27.974Z,103326.31
2023-02-11T12:54:15.277Z,103332.09
2023-02-11T12:56:51.414Z,103335.28
2023-02-11T12:59:34.122Z,103331.59
2023-02-11T13:02:07.862Z,103334.00
2023-02-11T13:04:41.543Z,103333.03
2023-02-11T13:07:18.592Z,103328.75
2023-02-11T13:09:52.426Z,103327.09
2023-02-11T13:12:37.459Z,103326.09
2023-02-11T13:15:09.109Z,103323.38
2023-02-11T13:17:48.921Z,103329.50
2023-02-11T13:20:33.904Z,103324.13
2023-02-11T13:23:12.312Z,103328.34
2023-02-11T13:25:45.670Z,103320.66
2023-02-11T13:28:27.000Z,103310.13
2023-02-11T13:31:02.790Z,103305.94
2023-02-11T13:33:37.126Z,103304.44
2023-02-11T13:36:17.784Z,103302.28
2023-02-11T13:39:05.904Z,103305.72
2023-02-11T13:41:38.165Z,103311.88
2023-02-11T13:44:23.672Z,103309.38
2023-02-11T13:46:56.017Z,103310.31
2023-02-11T13:49:29.070Z,103306.78
2023-02-11T13:51:58.031Z,103312.28
2023-02-11T13:54:36.803Z,103307.16
2023-02-11T13:57:26.443Z,103313.41
2023-02-11T13:59:55.854Z,103314.44
2023-02-11T14:02:45.141Z,103319.69
2023-02-11T14:05:46.982Z,103318.91
2023-02-11T14:08:39.486Z,103314.78
2023-02-11T14:11:12.842Z,103317.63
2023-02-11T14:14:16.461Z,103316.47
2023-02-11T14:17:28.282Z,103311.44
2023-02-11T14:19:56.854Z,103314.19
2023-02-11T14:22:28.349Z,103318.75
2023-02-11T14:24:59.896Z,103319.63
2023-02-11T14:27:38.679Z,103322.38
2023-02-11T14:30:28.788Z,103323.16
2023-02-11T14:33:32.137Z,103325.06
2023-02-11T14:36:09.870Z,103329.47
2023-02-11T14:38:51.869Z,103329.47
2023-02-11T14:41:25.762Z,103331.22
2023-02-11T14:43:59.580Z,103332.00
2023-02-11T14:46:32.843Z,103329.38
2023-02-11T14:49:04.347Z,103339.16
2023-02-11T14:51:36.268Z,103325.03
2023-02-11T14:54:13.409Z,103323.25
2023-02-11T14:56:42.433Z,103324.94
2023-02-11T14:59:19.034Z,103320.50
2023-02-11T15:01:51.743Z,103331.06
2023-02-11T15:04:24.863Z,103329.25
2023-02-11T15:06:53.483Z,103324.84
2023-02-11T15:09:27.953Z,103328.41
2023-02-11T15:11:57.766Z,103336.44
2023-02-11T15:14:29.323Z,103338.22
2023-02-11T15:17:00.114Z,103350.53
2023-02-11T15:19:34.522Z,103352.25
2023-02-11T15:22:05.569Z,103349.78
2023-02-11T15:24:36.018Z,103351.53
2023-02-11T15:27:05.878Z,103361.16
2023-02-11T15:29:39.622Z,103349.81
2023-02-11T15:32:13.770Z,103350.88
2023-02-11T15:34:42.247Z,103357.03
2023-02-11T15:37:14.643Z,103362.31
2023-02-11T15:39:43.770Z,103355.34
2023-02-11T15:42:19.876Z,103358.00
2023-02-11T15:44:56.335Z,103359.75
2023-02-11T15:47:30.718Z,103358.28
2023-02-11T15:49:59.290Z,103369.47
2023-02-11T15:52:29.123Z,103359.22
2023-02-11T15:55:01.763Z,103360.84
2023-02-11T15:57:30.671Z,103358.31
2023-02-11T16:00:04.413Z,103358.28
2023-02-11T16:02:36.525Z,103353.19
2023-02-11T16:05:07.031Z,103354.09
2023-02-11T16:07:47.386Z,103356.78
2023-02-11T16:10:24.942Z,103365.53
2023-02-11T16:13:03.909Z,103369.19
2023-02-11T16:15:49.407Z,103370.16
2023-02-11T16:18:37.638Z,103373.75
2023-02-11T16:21:08.761Z,103371.16
2023-02-11T16:23:42.064Z,103371.31
2023-02-11T16:26:21.754Z,103372.28
2023-02-11T16:28:50.248Z,103370.63
2023-02-11T16:31:20.124Z,103378.75
2023-02-11T16:33:48.280Z,103381.47
2023-02-11T16:36:18.276Z,103378.94
2023-02-11T16:38:46.619Z,103381.69
2023-02-11T16:41:14.741Z,103382.66
2023-02-11T16:43:42.860Z,103388.00
2023-02-11T16:46:15.726Z,103390.69
2023-02-11T16:48:45.310Z,103402.19
2023-02-11T16:51:13.659Z,103397.84
2023-02-11T16:53:41.934Z,103392.72
2023-02-11T16:56:16.741Z,103396.25
2023-02-11T16:58:44.988Z,103394.56
2023-02-11T17:01:14.279Z,103400.72
2023-02-11T17:03:43.760Z,103399.16
2023-02-11T17:06:14.643Z,103412.28
2023-02-11T17:08:43.107Z,103415.84
2023-02-11T17:11:11.262Z,103407.22
2023-02-11T17:13:39.702Z,103411.69
2023-02-11T17:16:14.995Z,103413.53
2023-02-11T17:18:43.032Z,103409.28
2023-02-11T17:21:11.053Z,103416.31
2023-02-11T17:23:40.572Z,103425.16
2023-02-11T17:26:09.310Z,103421.72
2023-02-11T17:28:37.458Z,103427.00
2023-02-11T17:31:09.646Z,103436.72
2023-02-11T17:33:38.925Z,103438.53
2023-02-11T17:36:08.830Z,103449.00
2023-02-11T17:38:38.291Z,103455.19
2023-02-11T17:41:07.826Z,103448.31
2023-02-11T17:43:35.972Z,103450.16
2023-02-11T17:46:08.577Z,103449.28
2023-02-11T17:48:37.832Z,103443.22
2023-02-11T17:51:06.332Z,103438.91
2023-02-11T17:53:34.476Z,103452.91
2023-02-11T17:56:06.319Z,103446.91
2023-02-11T17:58:35.816Z,103448.69
2023-02-11T18:01:03.894Z,103454.84
2023-02-11T18:03:33.134Z,103458.31
2023-02-11T18:06:01.950Z,103455.75
2023-02-11T18:08:30.075Z,103465.34
2023-02-11T18:10:58.143Z,103458.44
2023-02-11T18:13:26.280Z,103470.66
2023-02-11T18:15:55.938Z,103470.66
2023-02-11T18:18:24.080Z,103469.81
2023-02-11T18:20:57.654Z,103475.06
2023-02-11T18:23:25.888Z,103476.81
2023-02-11T18:25:57.046Z,103474.22
2023-02-11T18:28:25.294Z,103471.63
2023-02-11T18:30:59.963Z,103478.59
2023-02-11T18:33:29.019Z,103480.34
2023-02-11T18:35:57.925Z,103482.97
2023-02-11T18:38:26.385Z,103497.78
2023-02-11T18:40:58.190Z,103499.50
2023-02-11T18:43:26.395Z,103494.28
2023-02-11T18:45:54.890Z,103490.78
2023-02-11T18:48:26.698Z,103492.56
2023-02-11T18:50:55.997Z,103496.91
2023-02-11T18:53:25.299Z,103501.25
2023-02-11T18:55:54.508Z,103496.00
2023-02-11T18:58:22.830Z,103502.13
2023-02-11T19:00:53.872Z,103503.00
2023-02-11T19:03:22.224Z,103510.81
2023-02-11T19:05:54.633Z,103509.06
2023-02-11T19:08:22.845Z,103512.56
2023-02-11T19:10:52.168Z,103523.03
2023-02-11T19:13:23.077Z,103518.66
2023-02-11T19:15:51.435Z,103523.03
2023-02-11T19:18:22.223Z,103521.28
2023-02-11T19:20:50.394Z,103525.63
2023-02-11T19:23:19.820Z,103527.38
2023-02-11T19:25:49.213Z,103526.47
2023-02-11T19:28:17.411Z,103526.47
2023-02-11T19:30:45.560Z,103532.59
2023-02-11T19:33:13.668Z,103533.44
2023-02-11T19:35:41.936Z,103538.66
2023-02-11T19:38:10.220Z,103546.50
2023-02-11T19:40:39.729Z,103545.63
2023-02-11T19:43:07.856Z,103550.00
2023-02-11T19:45:38.432Z,103554.34
2023-02-11T19:48:06.658Z,103552.63
2023-02-11T19:50:34.714Z,103554.34
2023-02-11T19:53:03.252Z,103556.06
2023-02-11T19:55:31.361Z,103553.47
2023-02-11T19:58:00.903Z,103556.06
2023-02-11T20:00:31.705Z,103552.59
2023-02-11T20:02:59.826Z,103558.69
2023-02-11T20:05:28.047Z,103562.19
2023-02-11T20:07:56.135Z,103566.53
2023-02-11T20:10:24.939Z,103569.13
2023-02-11T20:12:53.171Z,103576.97
2023-02-11T20:15:22.673Z,103586.56
2023-02-11T20:17:50.753Z,103574.34
2023-02-11T20:20:19.110Z,103576.97
2023-02-11T20:22:47.134Z,103576.13
2023-02-11T20:25:15.173Z,103573.50
2023-02-11T20:27:43.214Z,103570.88
2023-02-11T20:30:11.953Z,103580.47
2023-02-11T20:32:41.442Z,103581.31
2023-02-11T20:35:10.903Z,103584.81
2023-02-11T20:37:42.226Z,103590.94
2023-02-11T20:40:12.664Z,103580.47
2023-02-11T20:42:40.685Z,103581.34
2023-02-11T20:45:09.644Z,103588.31
2023-02-11T20:47:38.591Z,103584.81
2023-02-11T20:50:09.293Z,103586.56
2023-02-11T20:52:37.907Z,103586.56
2023-02-11T20:55:06.518Z,103597.00
2023-02-11T20:57:35.158Z,103591.78
2023-02-11T21:00:03.407Z,103604.00
2023-02-11T21:02:31.502Z,103608.34
2023-02-11T21:04:59.534Z,103613.59
2023-02-11T21:07:29.775Z,103614.47
2023-02-11T21:09:58.000Z,103618.81
2023-02-11T21:12:29.114Z,103616.19
2023-02-11T21:14:58.004Z,103624.03
2023-02-11T21:17:26.596Z,103617.94
2023-02-11T21:19:54.784Z,103618.81
2023-02-11T21:22:22.820Z,103623.16
2023-02-11T21:24:52.392Z,103622.28
2023-02-11T21:27:20.659Z,103623.16
2023-02-11T21:29:54.072Z,103624.91
2023-02-11T21:32:22.913Z,103632.78
2023-02-11T21:34:51.209Z,103630.16
2023-02-11T21:37:19.248Z,103635.38
2023-02-11T21:39:47.717Z,103631.03
2023-02-11T21:42:17.213Z,103630.16
2023-02-11T21:44:45.289Z,103629.28
2023-02-11T21:47:15.400Z,103634.50
2023-02-11T21:49:43.701Z,103641.47
2023-02-11T21:52:11.802Z,103640.59
2023-02-11T21:54:39.917Z,103641.47
2023-02-11T21:57:07.940Z,103646.69
2023-02-11T21:59:40.436Z,103644.09
2023-02-11T22:02:10.006Z,103643.22
2023-02-11T22:04:38.184Z,103638.88
2023-02-11T22:07:06.216Z,103638.00
2023-02-11T22:09:34.268Z,103641.47
2023-02-11T22:12:05.972Z,103636.25
2023-02-11T22:14:34.089Z,103637.09
2023-02-11T22:17:03.546Z,103638.00
2023-02-11T22:19:32.679Z,103638.00
2023-02-11T22:22:00.883Z,103635.38
2023-02-11T22:24:29.010Z,103643.22
2023-02-11T22:26:57.054Z,103648.44
2023-02-11T22:29:28.042Z,103652.78
2023-02-11T22:31:58.695Z,103659.75
2023-02-11T22:34:28.963Z,103660.63
2023-02-11T22:36:57.080Z,103661.50
2023-02-11T22:39:25.270Z,103656.28
2023-02-11T22:41:54.473Z,103659.75
2023-02-11T22:44:25.480Z,103659.75
2023-02-11T22:46:54.304Z,103659.75
2023-02-11T22:49:23.361Z,103662.38
2023-02-11T22:51:52.809Z,103665.88
2023-02-11T22:54:23.852Z,103667.59
2023-02-11T22:56:53.351Z,103662.34
2023-02-11T22:59:22.024Z,103662.34
2023-02-11T23:01:50.731Z,103659.75
2023-02-11T23:04:20.922Z,103664.97
2023-02-11T23:06:50.059Z,103664.13
2023-02-11T23:09:19.447Z,103659.75
2023-02-11T23:11:48.630Z,103662.34
2023-02-11T23:14:16.700Z,103665.88
2023-02-11T23:16:50.582Z,103660.63
2023-02-11T23:19:19.860Z,103658.91
2023-02-11T23:21:51.374Z,103658.91
2023-02-11T23:24:20.961Z,103663.25
2023-02-11T23:26:49.047Z,103660.63
2023-02-11T23:29:19.328Z,103660.63
2023-02-11T23:31:47.542Z,103661.53
2023-02-11T23:34:17.293Z,103671.97
2023-02-11T23:36:45.741Z,103671.97
2023-02-11T23:39:17.000Z,103667.59
2023-02-11T23:41:47.376Z,103686.75
2023-02-11T23:44:15.631Z,103676.31
2023-02-11T23:46:43.682Z,103676.31
2023-02-11T23:49:11.802Z,103670.22
2023-02-11T23:51:42.078Z,103670.22
2023-02-11T23:54:12.927Z,103665.88
2023-02-11T23:56:42.337Z,103671.09
2023-02-11T23:59:11.863Z,103673.72
